sensor_id;sensor_type;location;lat;lon;timestamp;temperature;humidity
23873;DHT22;42884;50.718;4.630;2022-09-27T00:02:11;11.40;99.90
23873;DHT22;42884;50.718;4.630;2022-09-27T00:04:37;11.40;99.90
23873;DHT22;42884;50.718;4.630;2022-09-27T00:07:02;11.30;99.90
23873;DHT22;42884;50.718;4.630;2022-09-27T00:09:28;11.40;99.90
23873;DHT22;42884;50.718;4.630;2022-09-27T00:11:54;11.20;99.90
23873;DHT22;42884;50.718;4.630;2022-09-27T00:14:20;11.30;99.90
23873;DHT22;42884;50.718;4.630;2022-09-27T00:16:45;11.20;99.90
23873;DHT22;42884;50.718;4.630;2022-09-27T00:19:15;11.30;99.90
23873;DHT22;42884;50.718;4.630;2022-09-27T00:21:41;11.30;99.90
23873;DHT22;42884;50.718;4.630;2022-09-27T00:24:14;11.40;99.90
23873;DHT22;42884;50.718;4.630;2022-09-27T00:26:40;11.40;99.90
23873;DHT22;42884;50.718;4.630;2022-09-27T00:29:06;11.40;99.90
23873;DHT22;42884;50.718;4.630;2022-09-27T00:31:31;11.40;99.90
23873;DHT22;42884;50.718;4.630;2022-09-27T00:33:59;11.40;99.90
23873;DHT22;42884;50.718;4.630;2022-09-27T00:36:26;11.30;99.90
23873;DHT22;42884;50.718;4.630;2022-09-27T00:38:51;11.30;99.90
23873;DHT22;42884;50.718;4.630;2022-09-27T00:41:19;11.20;99.90
23873;DHT22;42884;50.718;4.630;2022-09-27T00:46:44;11.30;99.90
23873;DHT22;42884;50.718;4.630;2022-09-27T00:51:36;11.30;99.90
23873;DHT22;42884;50.718;4.630;2022-09-27T00:54:03;11.40;99.90
23873;DHT22;42884;50.718;4.630;2022-09-27T00:56:29;11.40;99.90
23873;DHT22;42884;50.718;4.630;2022-09-27T00:59:06;11.30;99.90
23873;DHT22;42884;50.718;4.630;2022-09-27T01:01:33;11.40;99.90
23873;DHT22;42884;50.718;4.630;2022-09-27T01:04:06;11.40;99.90
23873;DHT22;42884;50.718;4.630;2022-09-27T01:06:32;11.40;99.90
23873;DHT22;42884;50.718;4.630;2022-09-27T01:08:57;11.30;99.90
23873;DHT22;42884;50.718;4.630;2022-09-27T01:16:29;11.30;99.90
23873;DHT22;42884;50.718;4.630;2022-09-27T01:19:00;11.30;99.90
23873;DHT22;42884;50.718;4.630;2022-09-27T01:24:11;11.10;99.90
23873;DHT22;42884;50.718;4.630;2022-09-27T01:26:44;11.10;99.90
23873;DHT22;42884;50.718;4.630;2022-09-27T01:32:08;11.00;99.90
23873;DHT22;42884;50.718;4.630;2022-09-27T01:37:26;11.00;99.90
23873;DHT22;42884;50.718;4.630;2022-09-27T01:42:40;11.20;99.90
23873;DHT22;42884;50.718;4.630;2022-09-27T01:45:17;11.20;99.90
23873;DHT22;42884;50.718;4.630;2022-09-27T01:47:57;11.20;99.90
23873;DHT22;42884;50.718;4.630;2022-09-27T01:50:26;11.30;99.90
23873;DHT22;42884;50.718;4.630;2022-09-27T01:53:04;11.20;99.90
23873;DHT22;42884;50.718;4.630;2022-09-27T01:55:32;11.20;99.90
23873;DHT22;42884;50.718;4.630;2022-09-27T02:00:49;11.10;99.90
23873;DHT22;42884;50.718;4.630;2022-09-27T02:03:34;11.00;99.90
23873;DHT22;42884;50.718;4.630;2022-09-27T02:06:01;11.00;99.90
23873;DHT22;42884;50.718;4.630;2022-09-27T02:08:33;11.10;99.90
23873;DHT22;42884;50.718;4.630;2022-09-27T02:11:04;11.10;99.90
23873;DHT22;42884;50.718;4.630;2022-09-27T02:16:01;11.10;99.90
23873;DHT22;42884;50.718;4.630;2022-09-27T02:18:28;11.20;99.90
23873;DHT22;42884;50.718;4.630;2022-09-27T02:20:57;11.10;99.90
23873;DHT22;42884;50.718;4.630;2022-09-27T02:31:06;10.90;99.90
23873;DHT22;42884;50.718;4.630;2022-09-27T02:33:33;10.90;99.90
23873;DHT22;42884;50.718;4.630;2022-09-27T02:36:00;10.90;99.90
23873;DHT22;42884;50.718;4.630;2022-09-27T02:38:26;10.90;99.90
23873;DHT22;42884;50.718;4.630;2022-09-27T02:40:51;10.90;99.90
23873;DHT22;42884;50.718;4.630;2022-09-27T02:43:18;10.90;99.90
23873;DHT22;42884;50.718;4.630;2022-09-27T02:46:10;10.90;99.90
23873;DHT22;42884;50.718;4.630;2022-09-27T02:48:40;10.90;99.90
23873;DHT22;42884;50.718;4.630;2022-09-27T02:53:38;11.00;99.90
23873;DHT22;42884;50.718;4.630;2022-09-27T02:56:12;10.90;99.90
23873;DHT22;42884;50.718;4.630;2022-09-27T02:58:58;10.90;99.90
23873;DHT22;42884;50.718;4.630;2022-09-27T03:01:35;10.90;99.90
23873;DHT22;42884;50.718;4.630;2022-09-27T03:06:29;10.90;99.90
23873;DHT22;42884;50.718;4.630;2022-09-27T03:08:56;10.90;99.90
23873;DHT22;42884;50.718;4.630;2022-09-27T03:11:21;10.80;99.90
23873;DHT22;42884;50.718;4.630;2022-09-27T03:13:47;10.80;99.90
23873;DHT22;42884;50.718;4.630;2022-09-27T03:16:12;10.80;99.90
23873;DHT22;42884;50.718;4.630;2022-09-27T03:18:40;10.90;99.90
23873;DHT22;42884;50.718;4.630;2022-09-27T03:21:06;10.90;99.90
23873;DHT22;42884;50.718;4.630;2022-09-27T03:23:31;10.90;99.90
23873;DHT22;42884;50.718;4.630;2022-09-27T03:25:57;10.80;99.90
23873;DHT22;42884;50.718;4.630;2022-09-27T03:28:22;10.90;99.90
23873;DHT22;42884;50.718;4.630;2022-09-27T03:30:49;10.90;99.90
23873;DHT22;42884;50.718;4.630;2022-09-27T03:33:14;11.00;99.90
23873;DHT22;42884;50.718;4.630;2022-09-27T03:35:40;10.90;99.90
23873;DHT22;42884;50.718;4.630;2022-09-27T03:38:07;10.90;99.90
23873;DHT22;42884;50.718;4.630;2022-09-27T03:40:33;10.90;99.90
23873;DHT22;42884;50.718;4.630;2022-09-27T03:42:59;11.00;99.90
23873;DHT22;42884;50.718;4.630;2022-09-27T03:45:24;10.90;99.90
23873;DHT22;42884;50.718;4.630;2022-09-27T03:47:50;11.00;99.90
23873;DHT22;42884;50.718;4.630;2022-09-27T03:50:16;11.00;99.90
23873;DHT22;42884;50.718;4.630;2022-09-27T03:52:41;11.10;99.90
23873;DHT22;42884;50.718;4.630;2022-09-27T03:55:08;11.00;99.90
23873;DHT22;42884;50.718;4.630;2022-09-27T03:57:34;11.10;99.90
23873;DHT22;42884;50.718;4.630;2022-09-27T03:59:59;11.10;99.90
23873;DHT22;42884;50.718;4.630;2022-09-27T04:02:25;11.10;99.90
23873;DHT22;42884;50.718;4.630;2022-09-27T04:04:51;11.10;99.90
23873;DHT22;42884;50.718;4.630;2022-09-27T04:07:17;11.00;99.90
23873;DHT22;42884;50.718;4.630;2022-09-27T04:09:42;10.90;99.90
23873;DHT22;42884;50.718;4.630;2022-09-27T04:12:08;11.00;99.90
23873;DHT22;42884;50.718;4.630;2022-09-27T04:14:34;11.00;99.90
23873;DHT22;42884;50.718;4.630;2022-09-27T04:17:00;11.00;99.90
23873;DHT22;42884;50.718;4.630;2022-09-27T04:19:25;11.00;99.90
23873;DHT22;42884;50.718;4.630;2022-09-27T04:21:51;10.90;99.90
23873;DHT22;42884;50.718;4.630;2022-09-27T04:24:16;11.00;99.90
23873;DHT22;42884;50.718;4.630;2022-09-27T04:26:42;11.10;99.90
23873;DHT22;42884;50.718;4.630;2022-09-27T04:29:07;11.00;99.90
23873;DHT22;42884;50.718;4.630;2022-09-27T04:31:34;10.90;99.90
23873;DHT22;42884;50.718;4.630;2022-09-27T04:34:01;10.90;99.90
23873;DHT22;42884;50.718;4.630;2022-09-27T04:36:27;11.00;99.90
23873;DHT22;42884;50.718;4.630;2022-09-27T04:38:56;11.00;99.90
23873;DHT22;42884;50.718;4.630;2022-09-27T04:41:23;10.90;99.90
23873;DHT22;42884;50.718;4.630;2022-09-27T04:43:51;11.00;99.90
23873;DHT22;42884;50.718;4.630;2022-09-27T04:46:17;11.00;99.90
23873;DHT22;42884;50.718;4.630;2022-09-27T04:48:43;11.00;99.90
23873;DHT22;42884;50.718;4.630;2022-09-27T04:51:08;11.10;99.90
23873;DHT22;42884;50.718;4.630;2022-09-27T04:53:34;10.90;99.90
23873;DHT22;42884;50.718;4.630;2022-09-27T04:56:00;10.90;99.90
23873;DHT22;42884;50.718;4.630;2022-09-27T04:58:30;10.90;99.90
23873;DHT22;42884;50.718;4.630;2022-09-27T05:00:57;10.90;99.90
23873;DHT22;42884;50.718;4.630;2022-09-27T05:03:23;11.00;99.90
23873;DHT22;42884;50.718;4.630;2022-09-27T05:05:48;11.00;99.90
23873;DHT22;42884;50.718;4.630;2022-09-27T05:08:14;10.80;99.90
23873;DHT22;42884;50.718;4.630;2022-09-27T05:10:39;10.80;99.90
23873;DHT22;42884;50.718;4.630;2022-09-27T05:13:05;10.80;99.90
23873;DHT22;42884;50.718;4.630;2022-09-27T05:15:31;10.80;99.90
23873;DHT22;42884;50.718;4.630;2022-09-27T05:17:56;10.80;99.90
23873;DHT22;42884;50.718;4.630;2022-09-27T05:20:23;10.90;99.90
23873;DHT22;42884;50.718;4.630;2022-09-27T05:22:50;10.90;99.90
23873;DHT22;42884;50.718;4.630;2022-09-27T05:25:15;10.90;99.90
23873;DHT22;42884;50.718;4.630;2022-09-27T05:27:41;10.70;99.90
23873;DHT22;42884;50.718;4.630;2022-09-27T05:30:06;10.70;99.90
23873;DHT22;42884;50.718;4.630;2022-09-27T05:32:33;10.70;99.90
23873;DHT22;42884;50.718;4.630;2022-09-27T05:34:58;10.70;99.90
23873;DHT22;42884;50.718;4.630;2022-09-27T05:37:24;10.50;99.90
23873;DHT22;42884;50.718;4.630;2022-09-27T05:39:50;10.70;99.90
23873;DHT22;42884;50.718;4.630;2022-09-27T05:42:16;10.80;99.90
23873;DHT22;42884;50.718;4.630;2022-09-27T05:44:41;10.80;99.90
23873;DHT22;42884;50.718;4.630;2022-09-27T05:47:12;10.80;99.90
23873;DHT22;42884;50.718;4.630;2022-09-27T05:49:37;10.90;99.90
23873;DHT22;42884;50.718;4.630;2022-09-27T05:52:04;10.90;99.90
23873;DHT22;42884;50.718;4.630;2022-09-27T05:54:30;11.00;99.90
23873;DHT22;42884;50.718;4.630;2022-09-27T05:56:56;10.90;99.90
23873;DHT22;42884;50.718;4.630;2022-09-27T05:59:24;10.90;99.90
23873;DHT22;42884;50.718;4.630;2022-09-27T06:01:50;11.00;99.90
23873;DHT22;42884;50.718;4.630;2022-09-27T06:04:16;11.00;99.90
23873;DHT22;42884;50.718;4.630;2022-09-27T06:06:42;11.00;99.90
23873;DHT22;42884;50.718;4.630;2022-09-27T06:09:09;11.00;99.90
23873;DHT22;42884;50.718;4.630;2022-09-27T06:11:34;11.00;99.90
23873;DHT22;42884;50.718;4.630;2022-09-27T06:14:00;11.00;99.90
23873;DHT22;42884;50.718;4.630;2022-09-27T06:16:25;11.00;99.90
23873;DHT22;42884;50.718;4.630;2022-09-27T06:18:51;11.00;99.90
23873;DHT22;42884;50.718;4.630;2022-09-27T06:21:18;11.00;99.90
23873;DHT22;42884;50.718;4.630;2022-09-27T06:23:43;11.00;99.90
23873;DHT22;42884;50.718;4.630;2022-09-27T06:26:09;11.10;99.90
23873;DHT22;42884;50.718;4.630;2022-09-27T06:28:35;11.10;99.90
23873;DHT22;42884;50.718;4.630;2022-09-27T06:31:00;11.00;99.90
23873;DHT22;42884;50.718;4.630;2022-09-27T06:33:26;11.00;99.90
23873;DHT22;42884;50.718;4.630;2022-09-27T06:35:54;10.90;99.90
23873;DHT22;42884;50.718;4.630;2022-09-27T06:38:20;11.00;99.90
23873;DHT22;42884;50.718;4.630;2022-09-27T06:40:46;11.10;99.90
23873;DHT22;42884;50.718;4.630;2022-09-27T06:43:12;11.10;99.90
23873;DHT22;42884;50.718;4.630;2022-09-27T06:45:38;11.00;99.90
23873;DHT22;42884;50.718;4.630;2022-09-27T06:48:05;10.80;99.90
23873;DHT22;42884;50.718;4.630;2022-09-27T06:50:32;10.80;99.90
23873;DHT22;42884;50.718;4.630;2022-09-27T06:52:58;10.80;99.90
23873;DHT22;42884;50.718;4.630;2022-09-27T06:55:23;11.00;99.90
23873;DHT22;42884;50.718;4.630;2022-09-27T06:57:52;11.10;99.90
23873;DHT22;42884;50.718;4.630;2022-09-27T07:00:36;11.10;99.90
23873;DHT22;42884;50.718;4.630;2022-09-27T07:03:02;11.00;99.90
23873;DHT22;42884;50.718;4.630;2022-09-27T07:05:28;11.00;99.90
23873;DHT22;42884;50.718;4.630;2022-09-27T07:07:54;11.00;99.90
23873;DHT22;42884;50.718;4.630;2022-09-27T07:10:22;11.00;99.90
23873;DHT22;42884;50.718;4.630;2022-09-27T07:12:48;11.10;99.90
23873;DHT22;42884;50.718;4.630;2022-09-27T07:15:14;11.10;99.90
23873;DHT22;42884;50.718;4.630;2022-09-27T07:17:39;11.20;99.90
23873;DHT22;42884;50.718;4.630;2022-09-27T07:20:05;11.30;99.90
23873;DHT22;42884;50.718;4.630;2022-09-27T07:22:31;11.20;99.90
23873;DHT22;42884;50.718;4.630;2022-09-27T07:24:56;11.20;99.90
23873;DHT22;42884;50.718;4.630;2022-09-27T07:27:22;11.20;99.90
23873;DHT22;42884;50.718;4.630;2022-09-27T07:29:49;11.30;99.90
23873;DHT22;42884;50.718;4.630;2022-09-27T07:32:15;11.30;99.90
23873;DHT22;42884;50.718;4.630;2022-09-27T07:34:41;11.30;99.90
23873;DHT22;42884;50.718;4.630;2022-09-27T07:37:07;11.30;99.90
23873;DHT22;42884;50.718;4.630;2022-09-27T07:39:32;11.40;99.90
23873;DHT22;42884;50.718;4.630;2022-09-27T07:41:58;11.40;99.90
23873;DHT22;42884;50.718;4.630;2022-09-27T07:44:24;11.40;99.90
23873;DHT22;42884;50.718;4.630;2022-09-27T07:46:51;11.30;99.90
23873;DHT22;42884;50.718;4.630;2022-09-27T07:49:16;11.40;99.90
23873;DHT22;42884;50.718;4.630;2022-09-27T07:51:42;11.20;99.90
23873;DHT22;42884;50.718;4.630;2022-09-27T07:54:07;11.20;99.90
23873;DHT22;42884;50.718;4.630;2022-09-27T07:56:33;11.20;99.90
23873;DHT22;42884;50.718;4.630;2022-09-27T07:58:58;11.30;99.90
23873;DHT22;42884;50.718;4.630;2022-09-27T08:01:24;11.40;99.90
23873;DHT22;42884;50.718;4.630;2022-09-27T08:03:50;11.50;99.90
23873;DHT22;42884;50.718;4.630;2022-09-27T08:06:15;11.50;99.90
23873;DHT22;42884;50.718;4.630;2022-09-27T08:08:43;11.50;99.90
23873;DHT22;42884;50.718;4.630;2022-09-27T08:11:11;11.50;99.90
23873;DHT22;42884;50.718;4.630;2022-09-27T08:13:38;11.50;99.90
23873;DHT22;42884;50.718;4.630;2022-09-27T08:16:04;11.40;99.90
23873;DHT22;42884;50.718;4.630;2022-09-27T08:18:30;11.50;99.90
23873;DHT22;42884;50.718;4.630;2022-09-27T08:20:56;11.50;99.90
23873;DHT22;42884;50.718;4.630;2022-09-27T08:23:22;11.30;99.90
23873;DHT22;42884;50.718;4.630;2022-09-27T08:25:54;11.30;99.90
23873;DHT22;42884;50.718;4.630;2022-09-27T08:28:21;11.20;99.90
23873;DHT22;42884;50.718;4.630;2022-09-27T08:30:47;11.30;99.90
23873;DHT22;42884;50.718;4.630;2022-09-27T08:33:13;11.30;99.90
23873;DHT22;42884;50.718;4.630;2022-09-27T08:35:38;11.40;99.90
23873;DHT22;42884;50.718;4.630;2022-09-27T08:38:04;11.40;99.90
23873;DHT22;42884;50.718;4.630;2022-09-27T08:40:36;11.40;99.90
23873;DHT22;42884;50.718;4.630;2022-09-27T08:48:17;11.50;99.90
23873;DHT22;42884;50.718;4.630;2022-09-27T08:50:43;11.70;99.90
23873;DHT22;42884;50.718;4.630;2022-09-27T08:58:14;12.00;99.90
23873;DHT22;42884;50.718;4.630;2022-09-27T09:00:41;12.20;99.90
23873;DHT22;42884;50.718;4.630;2022-09-27T09:03:09;12.10;99.90
23873;DHT22;42884;50.718;4.630;2022-09-27T09:05:40;12.20;99.90
23873;DHT22;42884;50.718;4.630;2022-09-27T09:18:56;11.90;99.90
23873;DHT22;42884;50.718;4.630;2022-09-27T09:22:23;11.80;99.90
23873;DHT22;42884;50.718;4.630;2022-09-27T09:24:22;11.80;99.90
23873;DHT22;42884;50.718;4.630;2022-09-27T09:26:55;11.80;99.90
23873;DHT22;42884;50.718;4.630;2022-09-27T09:29:44;11.60;99.90
23873;DHT22;42884;50.718;4.630;2022-09-27T09:32:22;11.50;99.90
23873;DHT22;42884;50.718;4.630;2022-09-27T09:34:53;11.70;99.90
23873;DHT22;42884;50.718;4.630;2022-09-27T09:37:35;11.80;99.90
23873;DHT22;42884;50.718;4.630;2022-09-27T09:40:12;11.90;99.90
23873;DHT22;42884;50.718;4.630;2022-09-27T09:42:42;11.90;99.90
23873;DHT22;42884;50.718;4.630;2022-09-27T09:47:39;11.90;99.90
23873;DHT22;42884;50.718;4.630;2022-09-27T09:52:41;12.00;99.90
23873;DHT22;42884;50.718;4.630;2022-09-27T09:55:16;12.10;99.90
23873;DHT22;42884;50.718;4.630;2022-09-27T09:57:47;12.20;99.90
23873;DHT22;42884;50.718;4.630;2022-09-27T10:00:15;12.20;99.90
23873;DHT22;42884;50.718;4.630;2022-09-27T10:02:42;12.10;99.90
23873;DHT22;42884;50.718;4.630;2022-09-27T10:05:15;12.30;99.90
23873;DHT22;42884;50.718;4.630;2022-09-27T10:07:40;12.40;99.90
23873;DHT22;42884;50.718;4.630;2022-09-27T10:10:06;12.60;99.90
23873;DHT22;42884;50.718;4.630;2022-09-27T10:12:32;12.60;99.90
23873;DHT22;42884;50.718;4.630;2022-09-27T10:15:00;12.60;99.90
23873;DHT22;42884;50.718;4.630;2022-09-27T10:17:30;12.40;99.90
23873;DHT22;42884;50.718;4.630;2022-09-27T10:19:58;12.30;99.90
23873;DHT22;42884;50.718;4.630;2022-09-27T10:22:28;12.20;99.90
23873;DHT22;42884;50.718;4.630;2022-09-27T10:27:21;12.30;99.90
23873;DHT22;42884;50.718;4.630;2022-09-27T10:29:48;12.30;99.90
23873;DHT22;42884;50.718;4.630;2022-09-27T10:32:21;12.40;99.90
23873;DHT22;42884;50.718;4.630;2022-09-27T10:34:48;12.50;99.90
23873;DHT22;42884;50.718;4.630;2022-09-27T10:37:20;12.50;99.90
23873;DHT22;42884;50.718;4.630;2022-09-27T10:39:47;12.70;99.90
23873;DHT22;42884;50.718;4.630;2022-09-27T10:44:58;13.10;99.90
23873;DHT22;42884;50.718;4.630;2022-09-27T10:47:43;13.40;99.90
23873;DHT22;42884;50.718;4.630;2022-09-27T10:50:10;13.50;99.90
23873;DHT22;42884;50.718;4.630;2022-09-27T10:52:40;13.30;99.90
23873;DHT22;42884;50.718;4.630;2022-09-27T10:55:23;13.50;99.90
23873;DHT22;42884;50.718;4.630;2022-09-27T10:57:53;13.50;99.90
23873;DHT22;42884;50.718;4.630;2022-09-27T11:00:23;13.60;99.90
23873;DHT22;42884;50.718;4.630;2022-09-27T11:02:56;13.70;99.90
23873;DHT22;42884;50.718;4.630;2022-09-27T11:07:52;13.90;99.90
23873;DHT22;42884;50.718;4.630;2022-09-27T11:13:05;14.50;99.90
23873;DHT22;42884;50.718;4.630;2022-09-27T11:15:32;14.50;99.90
23873;DHT22;42884;50.718;4.630;2022-09-27T11:18:08;14.60;99.90
23873;DHT22;42884;50.718;4.630;2022-09-27T11:23:11;14.80;99.90
23873;DHT22;42884;50.718;4.630;2022-09-27T11:59:36;14.20;99.90
23873;DHT22;42884;50.718;4.630;2022-09-27T12:01:48;14.50;99.90
23873;DHT22;42884;50.718;4.630;2022-09-27T12:04:28;14.60;99.90
23873;DHT22;42884;50.718;4.630;2022-09-27T12:09:31;14.60;99.90
23873;DHT22;42884;50.718;4.630;2022-09-27T12:12:21;14.50;99.90
23873;DHT22;42884;50.718;4.630;2022-09-27T12:17:10;14.30;99.90
23873;DHT22;42884;50.718;4.630;2022-09-27T12:19:42;14.20;99.90
23873;DHT22;42884;50.718;4.630;2022-09-27T12:22:11;13.90;99.90
23873;DHT22;42884;50.718;4.630;2022-09-27T12:24:38;13.80;99.90
23873;DHT22;42884;50.718;4.630;2022-09-27T12:27:08;13.50;99.90
23873;DHT22;42884;50.718;4.630;2022-09-27T12:29:35;13.50;99.90
23873;DHT22;42884;50.718;4.630;2022-09-27T12:32:16;13.50;99.90
23873;DHT22;42884;50.718;4.630;2022-09-27T12:39:43;13.30;99.90
23873;DHT22;42884;50.718;4.630;2022-09-27T12:42:59;13.30;99.90
23873;DHT22;42884;50.718;4.630;2022-09-27T12:44:57;13.50;99.90
23873;DHT22;42884;50.718;4.630;2022-09-27T12:52:23;14.80;99.90
23873;DHT22;42884;50.718;4.630;2022-09-27T12:57:26;15.60;99.90
23873;DHT22;42884;50.718;4.630;2022-09-27T13:10:22;16.10;99.90
23873;DHT22;42884;50.718;4.630;2022-09-27T13:12:54;16.10;99.90
23873;DHT22;42884;50.718;4.630;2022-09-27T13:22:55;15.20;99.90
23873;DHT22;42884;50.718;4.630;2022-09-27T13:30:52;13.90;99.90
23873;DHT22;42884;50.718;4.630;2022-09-27T13:41:19;14.10;99.90
23873;DHT22;42884;50.718;4.630;2022-09-27T13:46:15;14.50;99.90
23873;DHT22;42884;50.718;4.630;2022-09-27T13:54:00;16.30;99.90
23873;DHT22;42884;50.718;4.630;2022-09-27T13:59:06;17.70;99.90
23873;DHT22;42884;50.718;4.630;2022-09-27T14:01:34;17.80;99.90
23873;DHT22;42884;50.718;4.630;2022-09-27T14:04:09;17.70;99.90
23873;DHT22;42884;50.718;4.630;2022-09-27T14:06:35;17.50;99.90
23873;DHT22;42884;50.718;4.630;2022-09-27T14:09:06;17.00;99.90
23873;DHT22;42884;50.718;4.630;2022-09-27T14:11:39;16.50;99.90
23873;DHT22;42884;50.718;4.630;2022-09-27T14:14:07;16.20;99.90
23873;DHT22;42884;50.718;4.630;2022-09-27T14:16:39;16.40;99.90
23873;DHT22;42884;50.718;4.630;2022-09-27T14:19:08;16.50;99.90
23873;DHT22;42884;50.718;4.630;2022-09-27T14:21:38;16.90;99.90
23873;DHT22;42884;50.718;4.630;2022-09-27T14:29:30;18.20;99.90
23873;DHT22;42884;50.718;4.630;2022-09-27T14:32:03;18.30;99.90
23873;DHT22;42884;50.718;4.630;2022-09-27T14:34:28;18.00;99.90
23873;DHT22;42884;50.718;4.630;2022-09-27T14:36:54;17.90;99.90
23873;DHT22;42884;50.718;4.630;2022-09-27T14:39:38;17.70;99.90
23873;DHT22;42884;50.718;4.630;2022-09-27T14:42:04;17.70;99.90
23873;DHT22;42884;50.718;4.630;2022-09-27T14:44:30;17.90;99.90
23873;DHT22;42884;50.718;4.630;2022-09-27T14:47:17;17.90;99.90
23873;DHT22;42884;50.718;4.630;2022-09-27T14:50:11;17.90;99.90
23873;DHT22;42884;50.718;4.630;2022-09-27T14:52:32;18.00;99.90
23873;DHT22;42884;50.718;4.630;2022-09-27T14:55:01;17.70;99.90
23873;DHT22;42884;50.718;4.630;2022-09-27T14:57:27;17.70;99.90
23873;DHT22;42884;50.718;4.630;2022-09-27T14:59:54;17.60;99.90
23873;DHT22;42884;50.718;4.630;2022-09-27T15:02:22;17.60;99.90
23873;DHT22;42884;50.718;4.630;2022-09-27T15:04:50;17.30;99.90
23873;DHT22;42884;50.718;4.630;2022-09-27T15:07:16;17.40;99.90
23873;DHT22;42884;50.718;4.630;2022-09-27T15:09:42;17.10;99.90
23873;DHT22;42884;50.718;4.630;2022-09-27T15:12:10;16.80;99.90
23873;DHT22;42884;50.718;4.630;2022-09-27T15:14:36;16.50;99.90
23873;DHT22;42884;50.718;4.630;2022-09-27T15:17:17;16.10;99.90
23873;DHT22;42884;50.718;4.630;2022-09-27T15:19:54;15.70;99.90
23873;DHT22;42884;50.718;4.630;2022-09-27T15:22:22;15.40;99.90
23873;DHT22;42884;50.718;4.630;2022-09-27T15:24:48;15.30;99.90
23873;DHT22;42884;50.718;4.630;2022-09-27T15:27:21;15.00;99.90
23873;DHT22;42884;50.718;4.630;2022-09-27T15:29:49;14.80;99.90
23873;DHT22;42884;50.718;4.630;2022-09-27T15:32:16;14.80;99.90
23873;DHT22;42884;50.718;4.630;2022-09-27T15:34:42;14.80;99.90
23873;DHT22;42884;50.718;4.630;2022-09-27T15:37:15;14.80;99.90
23873;DHT22;42884;50.718;4.630;2022-09-27T15:39:48;14.70;99.90
23873;DHT22;42884;50.718;4.630;2022-09-27T15:42:14;14.60;99.90
23873;DHT22;42884;50.718;4.630;2022-09-27T15:52:40;14.70;99.90
23873;DHT22;42884;50.718;4.630;2022-09-27T15:55:10;14.90;99.90
23873;DHT22;42884;50.718;4.630;2022-09-27T15:57:37;15.00;99.90
23873;DHT22;42884;50.718;4.630;2022-09-27T16:00:03;15.10;99.90
23873;DHT22;42884;50.718;4.630;2022-09-27T16:02:28;15.20;99.90
23873;DHT22;42884;50.718;4.630;2022-09-27T16:04:54;15.30;99.90
23873;DHT22;42884;50.718;4.630;2022-09-27T16:07:19;15.20;99.90
23873;DHT22;42884;50.718;4.630;2022-09-27T16:09:45;15.10;99.90
23873;DHT22;42884;50.718;4.630;2022-09-27T16:12:13;15.10;99.90
23873;DHT22;42884;50.718;4.630;2022-09-27T16:14:39;14.90;99.90
23873;DHT22;42884;50.718;4.630;2022-09-27T16:17:04;14.90;99.90
23873;DHT22;42884;50.718;4.630;2022-09-27T16:19:30;14.90;99.90
23873;DHT22;42884;50.718;4.630;2022-09-27T16:21:55;14.90;99.90
23873;DHT22;42884;50.718;4.630;2022-09-27T16:24:21;14.70;99.90
23873;DHT22;42884;50.718;4.630;2022-09-27T16:26:48;14.60;99.90
23873;DHT22;42884;50.718;4.630;2022-09-27T16:29:14;14.70;99.90
23873;DHT22;42884;50.718;4.630;2022-09-27T16:31:39;14.70;99.90
23873;DHT22;42884;50.718;4.630;2022-09-27T16:34:06;14.80;99.90
23873;DHT22;42884;50.718;4.630;2022-09-27T16:36:32;14.70;99.90
23873;DHT22;42884;50.718;4.630;2022-09-27T16:38:59;14.70;99.90
23873;DHT22;42884;50.718;4.630;2022-09-27T16:41:25;14.50;99.90
23873;DHT22;42884;50.718;4.630;2022-09-27T16:43:50;14.60;99.90
23873;DHT22;42884;50.718;4.630;2022-09-27T16:46:16;14.60;99.90
23873;DHT22;42884;50.718;4.630;2022-09-27T16:48:45;14.60;99.90
23873;DHT22;42884;50.718;4.630;2022-09-27T16:51:18;14.60;99.90
23873;DHT22;42884;50.718;4.630;2022-09-27T16:54:04;14.40;99.90
23873;DHT22;42884;50.718;4.630;2022-09-27T16:56:30;14.60;99.90
23873;DHT22;42884;50.718;4.630;2022-09-27T16:58:56;14.50;99.90
23873;DHT22;42884;50.718;4.630;2022-09-27T17:01:22;14.50;99.90
23873;DHT22;42884;50.718;4.630;2022-09-27T17:03:48;14.40;99.90
23873;DHT22;42884;50.718;4.630;2022-09-27T17:06:15;14.30;99.90
23873;DHT22;42884;50.718;4.630;2022-09-27T17:08:40;14.30;99.90
23873;DHT22;42884;50.718;4.630;2022-09-27T17:11:06;14.20;99.90
23873;DHT22;42884;50.718;4.630;2022-09-27T17:13:32;14.20;99.90
23873;DHT22;42884;50.718;4.630;2022-09-27T17:15:58;14.10;99.90
23873;DHT22;42884;50.718;4.630;2022-09-27T17:18:24;14.10;99.90
23873;DHT22;42884;50.718;4.630;2022-09-27T17:20:49;14.00;99.90
23873;DHT22;42884;50.718;4.630;2022-09-27T17:23:15;13.90;99.90
23873;DHT22;42884;50.718;4.630;2022-09-27T17:25:40;13.90;99.90
23873;DHT22;42884;50.718;4.630;2022-09-27T17:28:06;13.80;99.90
23873;DHT22;42884;50.718;4.630;2022-09-27T17:30:31;13.80;99.90
23873;DHT22;42884;50.718;4.630;2022-09-27T17:32:59;13.80;99.90
23873;DHT22;42884;50.718;4.630;2022-09-27T17:35:24;13.70;99.90
23873;DHT22;42884;50.718;4.630;2022-09-27T17:37:50;13.60;99.90
23873;DHT22;42884;50.718;4.630;2022-09-27T17:40:15;13.60;99.90
23873;DHT22;42884;50.718;4.630;2022-09-27T17:42:41;13.60;99.90
23873;DHT22;42884;50.718;4.630;2022-09-27T17:45:07;13.60;99.90
23873;DHT22;42884;50.718;4.630;2022-09-27T17:47:33;13.50;99.90
23873;DHT22;42884;50.718;4.630;2022-09-27T17:50:17;13.50;99.90
23873;DHT22;42884;50.718;4.630;2022-09-27T17:52:49;13.40;99.90
23873;DHT22;42884;50.718;4.630;2022-09-27T17:55:14;13.30;99.90
23873;DHT22;42884;50.718;4.630;2022-09-27T17:57:40;13.30;99.90
23873;DHT22;42884;50.718;4.630;2022-09-27T18:00:06;13.30;99.90
23873;DHT22;42884;50.718;4.630;2022-09-27T18:02:34;13.30;99.90
23873;DHT22;42884;50.718;4.630;2022-09-27T18:04:59;13.30;99.90
23873;DHT22;42884;50.718;4.630;2022-09-27T18:07:25;13.10;99.90
23873;DHT22;42884;50.718;4.630;2022-09-27T18:09:50;13.20;99.90
23873;DHT22;42884;50.718;4.630;2022-09-27T18:12:16;13.30;99.90
23873;DHT22;42884;50.718;4.630;2022-09-27T18:14:41;13.00;99.90
23873;DHT22;42884;50.718;4.630;2022-09-27T18:17:07;13.00;99.90
23873;DHT22;42884;50.718;4.630;2022-09-27T18:19:37;12.80;99.90
23873;DHT22;42884;50.718;4.630;2022-09-27T18:22:03;12.70;99.90
23873;DHT22;42884;50.718;4.630;2022-09-27T18:24:28;12.60;99.90
23873;DHT22;42884;50.718;4.630;2022-09-27T18:26:54;12.50;99.90
23873;DHT22;42884;50.718;4.630;2022-09-27T18:29:21;12.40;99.90
23873;DHT22;42884;50.718;4.630;2022-09-27T18:31:47;12.50;99.90
23873;DHT22;42884;50.718;4.630;2022-09-27T18:34:12;12.40;99.90
23873;DHT22;42884;50.718;4.630;2022-09-27T18:36:38;12.40;99.90
23873;DHT22;42884;50.718;4.630;2022-09-27T18:39:10;12.40;99.90
23873;DHT22;42884;50.718;4.630;2022-09-27T18:41:36;12.40;99.90